createdAt,value
2023-04-28T00:00:33.236Z,21.50
2023-04-28T00:03:18.135Z,20.40
2023-04-28T00:05:47.832Z,24.30
2023-04-28T00:08:15.855Z,20.60
2023-04-28T00:10:43.829Z,31.00
2023-04-28T00:13:11.796Z,27.90
2023-04-28T00:15:40.478Z,22.80
2023-04-28T00:18:08.687Z,25.90
2023-04-28T00:20:36.836Z,24.10
2023-04-28T00:23:04.913Z,23.60
2023-04-28T00:25:33.213Z,25.70
2023-04-28T00:28:01.890Z,25.00
2023-04-28T00:30:31.002Z,22.70
2023-04-28T00:32:59.038Z,22.60
2023-04-28T00:35:27.122Z,24.10
2023-04-28T00:37:55.246Z,23.60
2023-04-28T00:40:23.469Z,23.10
2023-04-28T00:42:51.671Z,25.00
2023-04-28T00:45:20.828Z,28.10
2023-04-28T00:47:48.885Z,26.20
2023-04-28T00:50:17.554Z,23.40
2023-04-28T00:52:45.798Z,22.50
2023-04-28T00:55:15.510Z,25.60
2023-04-28T00:57:43.503Z,24.70
2023-04-28T01:00:11.984Z,26.50
2023-04-28T01:02:40.176Z,23.60
2023-04-28T01:05:10.084Z,25.00
2023-04-28T01:07:39.239Z,27.10
2023-04-28T01:10:08.824Z,22.40
2023-04-28T01:12:37.066Z,23.60
2023-04-28T01:15:05.936Z,24.10
2023-04-28T01:17:34.469Z,22.70
2023-04-28T01:20:03.182Z,29.70
2023-04-28T01:22:31.137Z,23.40
2023-04-28T01:25:00.358Z,24.70
2023-04-28T01:27:28.666Z,33.90
2023-04-28T01:29:58.648Z,27.30
2023-04-28T01:32:26.952Z,29.30
2023-04-28T01:34:54.969Z,28.00
2023-04-28T01:37:22.969Z,29.80
2023-04-28T01:39:51.033Z,28.10
2023-04-28T01:42:19.833Z,30.10
2023-04-28T01:44:47.912Z,29.30
2023-04-28T01:47:16.110Z,30.20
2023-04-28T01:49:44.099Z,28.70
2023-04-28T01:52:12.104Z,24.40
2023-04-28T01:54:39.976Z,25.90
2023-04-28T01:57:08.326Z,27.20
2023-04-28T01:59:37.048Z,27.00
2023-04-28T02:02:06.666Z,35.00
2023-04-28T02:04:34.869Z,26.60
2023-04-28T02:07:02.773Z,28.30
2023-04-28T02:09:30.871Z,30.30
2023-04-28T02:12:00.376Z,23.50
2023-04-28T02:14:29.880Z,24.80
2023-04-28T02:16:59.191Z,26.60
2023-04-28T02:19:27.650Z,29.40
2023-04-28T02:21:55.931Z,20.30
2023-04-28T02:24:23.964Z,29.20
2023-04-28T02:26:51.971Z,30.90
2023-04-28T02:29:20.620Z,35.30
2023-04-28T02:31:48.858Z,28.50
2023-04-28T02:34:17.144Z,28.30
2023-04-28T02:36:46.548Z,32.00
2023-04-28T02:39:14.487Z,30.50
2023-04-28T02:41:43.019Z,27.40
2023-04-28T02:44:11.308Z,28.50
2023-04-28T02:46:39.356Z,33.60
2023-04-28T02:49:07.816Z,31.00
2023-04-28T02:51:36.107Z,31.00
2023-04-28T02:54:04.745Z,26.60
2023-04-28T02:56:33.772Z,29.30
2023-04-28T02:59:02.156Z,30.00
2023-04-28T03:01:30.166Z,28.50
2023-04-28T03:03:59.070Z,30.90
2023-04-28T03:06:28.503Z,24.10
2023-04-28T03:08:56.465Z,26.90
2023-04-28T03:11:24.486Z,24.60
2023-04-28T03:13:53.324Z,32.20
2023-04-28T03:16:21.465Z,23.50
2023-04-28T03:18:49.769Z,26.00
2023-04-28T03:21:17.639Z,26.10
2023-04-28T03:23:46.015Z,20.60
2023-04-28T03:26:14.170Z,24.50
2023-04-28T03:28:43.479Z,26.40
2023-04-28T03:31:11.644Z,28.80
2023-04-28T03:33:39.641Z,25.80
2023-04-28T03:36:08.235Z,26.20
2023-04-28T03:38:36.219Z,22.30
2023-04-28T03:41:04.505Z,25.80
2023-04-28T03:43:33.749Z,27.70
2023-04-28T03:46:16.233Z,24.10
2023-04-28T03:48:46.313Z,19.00
2023-04-28T03:51:14.526Z,22.70
2023-04-28T03:53:42.888Z,23.30
2023-04-28T03:56:11.233Z,22.40
2023-04-28T03:58:41.170Z,25.70
2023-04-28T04:05:19.714Z,22.10
2023-04-28T04:07:48.604Z,21.60
2023-04-28T04:10:17.172Z,21.00
2023-04-28T04:12:45.698Z,17.90
2023-04-28T04:15:13.895Z,24.50
2023-04-28T04:17:43.171Z,23.70
2023-04-28T04:20:11.501Z,19.70
2023-04-28T04:22:39.679Z,26.50
2023-04-28T04:25:08.249Z,21.40
2023-04-28T04:27:36.484Z,20.70
2023-04-28T04:34:38.124Z,27.30
2023-04-28T04:37:06.742Z,16.90
2023-04-28T04:39:35.876Z,22.30
2023-04-28T04:42:16.757Z,22.10
2023-04-28T04:45:10.049Z,22.20
2023-04-28T04:47:38.385Z,21.10
2023-04-28T04:50:07.538Z,22.00
2023-04-28T04:52:35.751Z,30.50
2023-04-28T08:09:55.324Z,6.70
2023-04-28T08:12:23.520Z,7.00
2023-04-28T08:14:51.639Z,6.20
2023-04-28T08:17:20.269Z,4.20
2023-04-28T08:19:49.112Z,7.70
2023-04-28T08:22:17.246Z,7.00
2023-04-28T08:24:46.286Z,3.60
2023-04-28T08:27:14.576Z,3.80
2023-04-28T08:29:43.024Z,4.40
2023-04-28T08:32:12.565Z,5.40
2023-04-28T08:34:40.719Z,6.50
2023-04-28T08:37:09.026Z,6.10
2023-04-28T08:39:37.627Z,3.60
2023-04-28T08:42:06.066Z,4.90
2023-04-28T08:44:39.552Z,9.90
2023-04-28T08:47:36.987Z,5.60
2023-04-28T08:50:09.797Z,2.80
2023-04-28T08:52:41.283Z,6.80
2023-04-28T08:55:12.934Z,4.00
2023-04-28T08:57:46.065Z,4.00
2023-04-28T09:00:15.160Z,5.00
2023-04-28T09:02:43.522Z,7.40
2023-04-28T09:05:13.820Z,7.60
2023-04-28T09:07:46.058Z,4.40
2023-04-28T09:10:19.773Z,3.20
2023-04-28T09:12:52.772Z,4.20
2023-04-28T09:15:34.037Z,8.70
2023-04-28T09:18:07.007Z,5.10
2023-04-28T09:20:36.444Z,3.60
2023-04-28T09:23:19.258Z,6.40
2023-04-28T09:26:03.457Z,3.70
2023-04-28T09:28:32.980Z,5.00
2023-04-28T09:31:01.652Z,8.30
2023-04-28T09:33:30.270Z,4.40
2023-04-28T09:35:58.916Z,5.30
2023-04-28T09:38:27.477Z,4.20
2023-04-28T09:41:01.229Z,1.80
2023-04-28T09:43:34.468Z,4.30
2023-04-28T09:46:04.984Z,3.70
2023-04-28T09:48:34.326Z,4.20
2023-04-28T09:51:06.190Z,4.80
2023-04-28T09:53:35.897Z,3.90
2023-04-28T09:56:05.495Z,9.20
2023-04-28T09:58:36.362Z,5.50
2023-04-28T10:01:06.953Z,3.50
2023-04-28T10:03:36.414Z,3.30
2023-04-28T10:06:07.123Z,3.60
2023-04-28T10:08:35.650Z,6.20
2023-04-28T10:11:04.105Z,3.50
2023-04-28T10:13:32.770Z,4.60
2023-04-28T10:16:02.234Z,4.50
2023-04-28T10:18:32.061Z,4.70
2023-04-28T10:21:03.832Z,5.50
2023-04-28T10:24:01.461Z,8.00
2023-04-28T10:26:54.917Z,4.50
2023-04-28T10:29:27.978Z,3.60
2023-04-28T10:32:22.415Z,4.20
2023-04-28T10:34:50.769Z,4.30
2023-04-28T10:37:19.651Z,6.40
2023-04-28T10:40:27.785Z,6.60
2023-04-28T10:42:56.896Z,6.30
2023-04-28T10:45:56.114Z,8.80
2023-04-28T10:48:35.080Z,5.80
2023-04-28T10:51:03.587Z,2.90
2023-04-28T10:53:48.445Z,8.40
2023-04-28T10:56:21.746Z,6.20
2023-04-28T10:58:58.200Z,65.10
2023-04-28T11:05:12.912Z,5.60
2023-04-28T11:07:41.728Z,3.80
2023-04-28T11:10:10.523Z,8.10
2023-04-28T11:13:17.278Z,7.60
2023-04-28T11:16:03.278Z,4.80
2023-04-28T11:18:55.380Z,7.00
2023-04-28T11:21:26.011Z,5.20
2023-04-28T11:23:54.576Z,7.40
2023-04-28T11:26:25.540Z,13.10
2023-04-28T11:28:56.270Z,6.70
2023-04-28T11:31:26.347Z,4.70
2023-04-28T11:33:59.580Z,8.80
2023-04-28T11:36:33.615Z,7.70
2023-04-28T11:39:07.920Z,6.70
2023-04-28T11:41:39.569Z,7.80
2023-04-28T11:44:14.320Z,6.10
2023-04-28T11:46:47.255Z,6.50
2023-04-28T11:49:15.143Z,6.50
2023-04-28T11:51:45.078Z,10.20
2023-04-28T11:54:14.962Z,6.70
2023-04-28T11:56:42.908Z,6.90
2023-04-28T11:59:13.258Z,8.30
2023-04-28T12:01:48.614Z,6.90
2023-04-28T12:04:37.973Z,5.50
2023-04-28T12:07:16.473Z,6.20
2023-04-28T12:10:05.594Z,10.30
2023-04-28T12:12:48.947Z,10.40
2023-04-28T12:15:21.676Z,9.20
2023-04-28T12:17:51.365Z,7.60
2023-04-28T12:20:40.800Z,10.80
2023-04-28T12:23:09.653Z,11.00
2023-04-28T12:25:44.619Z,7.50
2023-04-28T12:28:12.637Z,9.00
2023-04-28T12:30:44.039Z,7.20
2023-04-28T12:33:25.933Z,9.90
2023-04-28T12:35:56.050Z,8.20
2023-04-28T12:38:25.399Z,7.50
2023-04-28T12:40:54.042Z,7.10
2023-04-28T12:43:24.411Z,10.10
2023-04-28T12:45:54.399Z,32.10
2023-04-28T12:48:25.773Z,11.30
2023-04-28T12:50:53.753Z,12.50
2023-04-28T12:53:22.542Z,8.80
2023-04-28T12:55:50.550Z,9.30
2023-04-28T12:58:18.561Z,9.70
2023-04-28T13:00:46.696Z,7.20
2023-04-28T13:03:16.120Z,9.50
2023-04-28T13:05:45.588Z,8.60
2023-04-28T13:08:14.151Z,9.30
2023-04-28T13:10:42.119Z,8.30
2023-04-28T13:13:10.215Z,8.90
2023-04-28T13:15:39.008Z,9.00
2023-04-28T13:18:07.306Z,8.50
2023-04-28T13:20:35.482Z,6.30
2023-04-28T13:23:03.611Z,15.50
2023-04-28T13:25:31.861Z,11.60
2023-04-28T13:27:59.762Z,6.30
2023-04-28T13:30:27.893Z,7.40
2023-04-28T13:32:57.624Z,6.30
2023-04-28T13:35:26.442Z,10.10
2023-04-28T13:37:56.308Z,9.80
2023-04-28T13:40:24.480Z,7.50
2023-04-28T13:42:52.381Z,9.50
2023-04-28T13:45:22.022Z,12.70
2023-04-28T13:47:51.165Z,27.90
2023-04-28T13:50:19.452Z,25.60
2023-04-28T13:52:47.774Z,14.80
2023-04-28T13:55:15.893Z,9.60
2023-04-28T13:57:43.818Z,6.60
2023-04-28T14:00:12.685Z,8.30
2023-04-28T14:02:41.680Z,36.10
2023-04-28T14:05:10.015Z,16.30
2023-04-28T14:07:38.258Z,19.20
2023-04-28T14:10:07.008Z,17.60
2023-04-28T14:12:35.180Z,8.00
2023-04-28T14:15:03.285Z,12.10
2023-04-28T14:17:32.935Z,6.80
2023-04-28T14:20:01.877Z,10.40
2023-04-28T14:22:30.174Z,7.30
2023-04-28T14:24:58.879Z,9.50
2023-04-28T14:27:27.767Z,6.40
2023-04-28T14:29:55.934Z,5.00
2023-04-28T14:32:23.918Z,9.10
2023-04-28T14:34:51.974Z,7.40
2023-04-28T14:37:20.421Z,7.40
2023-04-28T14:39:49.569Z,10.70
2023-04-28T14:42:17.614Z,12.70
2023-04-28T14:44:46.456Z,7.70
2023-04-28T14:47:14.642Z,9.40
2023-04-28T14:49:42.596Z,8.30
2023-04-28T14:52:10.812Z,5.40
2023-04-28T14:54:39.393Z,9.20
2023-04-28T14:57:07.554Z,6.20
2023-04-28T14:59:36.020Z,11.80
2023-04-28T15:02:04.269Z,6.60
2023-04-28T15:04:32.749Z,5.50
2023-04-28T15:07:01.827Z,7.90
2023-04-28T15:09:31.070Z,8.90
2023-04-28T15:11:59.076Z,11.80
2023-04-28T15:14:26.954Z,7.90
2023-04-28T15:16:55.197Z,52.90
2023-04-28T15:19:24.366Z,29.90
2023-04-28T15:21:52.773Z,10.40
2023-04-28T15:24:23.481Z,9.70
2023-04-28T15:26:51.582Z,11.80
2023-04-28T15:29:19.558Z,6.70
2023-04-28T15:31:48.386Z,16.20
2023-04-28T15:34:16.422Z,13.10
2023-04-28T15:36:45.896Z,10.20
2023-04-28T15:39:16.053Z,6.70
2023-04-28T15:41:43.906Z,38.30
2023-04-28T15:44:11.791Z,11.30
2023-04-28T15:46:40.238Z,5.90
2023-04-28T15:49:08.845Z,7.30
2023-04-28T15:51:37.079Z,8.50
2023-04-28T15:54:05.237Z,9.30
2023-04-28T15:56:34.237Z,7.60
2023-04-28T15:59:02.665Z,9.20
2023-04-28T16:01:30.611Z,10.10
2023-04-28T16:03:58.844Z,27.70
2023-04-28T16:06:26.985Z,7.10
2023-04-28T16:08:57.019Z,8.30
2023-04-28T16:11:25.279Z,11.40
2023-04-28T16:13:53.451Z,8.00
2023-04-28T16:16:23.377Z,10.00
2023-04-28T16:18:51.492Z,8.90
2023-04-28T16:21:19.517Z,6.80
2023-04-28T16:23:50.920Z,9.90
2023-04-28T16:26:19.339Z,9.40
2023-04-28T16:28:47.757Z,8.50
2023-04-28T16:31:16.378Z,5.00
2023-04-28T16:33:44.376Z,11.80
2023-04-28T16:36:12.294Z,13.40
2023-04-28T16:38:41.099Z,7.80
2023-04-28T16:41:08.992Z,9.60
2023-04-28T16:43:38.312Z,9.10
2023-04-28T16:46:07.670Z,12.50
2023-04-28T16:48:35.901Z,8.30
2023-04-28T16:51:08.174Z,8.90
2023-04-28T16:53:36.598Z,7.40
2023-04-28T16:56:04.941Z,13.20
2023-04-28T16:58:33.152Z,13.10
2023-04-28T17:01:01.331Z,8.90
2023-04-28T17:03:29.495Z,9.40
2023-04-28T17:05:59.342Z,9.30
2023-04-28T17:08:28.099Z,11.80
2023-04-28T17:10:56.309Z,12.00
2023-04-28T17:13:24.415Z,16.40
2023-04-28T17:15:57.492Z,13.20
2023-04-28T17:18:26.658Z,13.10
2023-04-28T17:20:56.753Z,14.00
2023-04-28T17:23:25.077Z,16.70
2023-04-28T17:25:53.054Z,20.00
2023-04-28T17:28:21.332Z,18.40
2023-04-28T17:30:50.467Z,26.70
2023-04-28T17:33:19.499Z,31.80
2023-04-28T17:35:47.499Z,21.20
2023-04-28T17:38:16.354Z,21.70
2023-04-28T17:40:48.579Z,26.10
2023-04-28T17:43:17.017Z,26.50
2023-04-28T17:45:45.070Z,19.90
2023-04-28T17:48:13.858Z,20.10
2023-04-28T17:50:41.968Z,22.50
2023-04-28T17:53:10.631Z,22.10
2023-04-28T17:55:39.908Z,15.10
2023-04-28T17:58:08.313Z,19.30
2023-04-28T18:00:36.559Z,22.50
2023-04-28T18:03:04.625Z,22.30
2023-04-28T18:05:35.399Z,21.20
2023-04-28T18:08:04.283Z,18.00
2023-04-28T18:10:32.655Z,20.10
2023-04-28T18:13:02.010Z,17.20
2023-04-28T18:15:30.859Z,21.30
2023-04-28T18:17:58.947Z,26.40
2023-04-28T18:20:26.950Z,26.80
2023-04-28T18:22:56.625Z,27.50
2023-04-28T18:25:24.659Z,27.40
2023-04-28T18:27:53.973Z,24.90
2023-04-28T18:30:22.173Z,31.40
2023-04-28T18:32:51.002Z,26.10
2023-04-28T18:35:19.657Z,29.10
2023-04-28T18:37:47.814Z,29.40
2023-04-28T18:40:16.324Z,22.50
2023-04-28T18:42:44.272Z,23.20
2023-04-28T18:47:41.049Z,23.90
2023-04-28T18:50:09.503Z,21.50
2023-04-28T18:52:38.358Z,25.80
2023-04-28T18:55:06.713Z,20.50
2023-04-28T18:57:34.768Z,21.20
2023-04-28T19:04:42.120Z,24.70
2023-04-28T19:07:11.463Z,25.60
2023-04-28T19:09:39.713Z,24.70
2023-04-28T19:12:08.620Z,25.50
2023-04-28T19:14:37.178Z,29.40
2023-04-28T19:17:05.394Z,23.20
2023-04-28T19:19:34.168Z,23.50
2023-04-28T19:22:03.328Z,26.70
2023-04-28T19:24:31.551Z,24.40
2023-04-28T19:27:01.683Z,24.10
2023-04-28T19:29:29.815Z,19.70
2023-04-28T19:31:58.080Z,19.70
2023-04-28T19:34:27.001Z,22.40
2023-04-28T19:36:56.125Z,28.10
2023-04-28T19:39:24.335Z,27.20
2023-04-28T19:41:54.587Z,24.10
2023-04-28T19:44:23.116Z,38.00
2023-04-28T19:46:51.446Z,25.20
2023-04-28T19:49:19.641Z,28.10
2023-04-28T19:51:47.786Z,22.50
2023-04-28T19:54:16.838Z,29.40
2023-04-28T19:56:45.028Z,36.30
2023-04-28T19:59:13.120Z,41.10
2023-04-28T20:01:43.737Z,35.50
2023-04-28T20:04:15.713Z,32.30
2023-04-28T20:06:44.272Z,40.30
2023-04-28T20:09:12.475Z,35.70
2023-04-28T20:11:41.500Z,40.00
2023-04-28T20:14:09.848Z,42.50
2023-04-28T20:16:38.081Z,38.00
2023-04-28T20:19:06.349Z,38.40
2023-04-28T20:21:35.330Z,44.30
2023-04-28T20:24:03.753Z,35.50
2023-04-28T20:26:31.928Z,41.60
2023-04-28T20:29:00.519Z,37.60
2023-04-28T20:31:28.614Z,36.70
2023-04-28T20:33:56.705Z,33.40
2023-04-28T20:36:25.441Z,33.70
2023-04-28T20:38:54.052Z,90.60
2023-04-28T20:41:22.185Z,85.10
2023-04-28T20:43:52.449Z,61.60
2023-04-28T20:46:22.055Z,60.10
2023-04-28T20:48:50.687Z,53.10
2023-04-28T20:51:20.062Z,43.60
2023-04-28T20:53:48.201Z,42.80
2023-04-28T20:56:16.392Z,44.10
2023-04-28T20:58:46.480Z,35.50
2023-04-28T21:04:06.841Z,40.00
2023-04-28T21:06:35.195Z,35.70
2023-04-28T21:09:03.235Z,31.50
2023-04-28T21:11:31.452Z,36.70
2023-04-28T21:14:00.063Z,34.80
2023-04-28T21:16:28.236Z,24.10
2023-04-28T21:18:56.783Z,24.30
2023-04-28T21:21:24.938Z,28.90
2023-04-28T21:23:53.245Z,30.40
2023-04-28T21:26:22.444Z,29.20
2023-04-28T21:28:51.007Z,29.60
2023-04-28T21:31:19.187Z,25.60
2023-04-28T21:33:47.488Z,25.10
2023-04-28T21:36:15.747Z,26.50
2023-04-28T21:38:44.119Z,23.50
2023-04-28T21:41:13.178Z,28.60
2023-04-28T21:43:41.240Z,27.30
2023-04-28T21:46:09.800Z,31.50
2023-04-28T21:48:38.641Z,26.50
2023-04-28T21:51:06.704Z,25.60
2023-04-28T21:53:34.833Z,23.00
2023-04-28T21:56:04.413Z,23.30
2023-04-28T21:58:57.746Z,28.60
2023-04-28T22:01:27.304Z,22.00
2023-04-28T22:03:56.340Z,32.90
2023-04-28T22:06:25.340Z,24.30
2023-04-28T22:08:54.059Z,24.00
2023-04-28T22:11:22.197Z,20.00
2023-04-28T22:13:50.392Z,30.80
2023-04-28T22:16:18.548Z,25.10
2023-04-28T22:18:46.867Z,31.40
2023-04-28T22:21:16.810Z,23.50
2023-04-28T22:23:45.057Z,22.80
2023-04-28T22:26:14.594Z,22.20
2023-04-28T22:28:42.918Z,24.20
2023-04-28T22:31:11.224Z,24.40
2023-04-28T22:33:39.513Z,21.20
2023-04-28T22:36:07.790Z,23.40
2023-04-28T22:38:35.836Z,23.70
2023-04-28T22:41:04.024Z,20.50
2023-04-28T22:43:32.577Z,24.30
2023-04-28T22:46:01.101Z,23.60
2023-04-28T22:48:30.365Z,22.00
2023-04-28T22:50:58.660Z,28.10
2023-04-28T22:53:26.701Z,27.70
2023-04-28T22:55:56.805Z,22.60
2023-04-28T22:58:25.191Z,30.30
2023-04-28T23:00:53.475Z,23.20
2023-04-28T23:03:21.733Z,21.90
2023-04-28T23:05:49.923Z,25.70
2023-04-28T23:08:17.962Z,23.90
2023-04-28T23:10:46.429Z,24.20
2023-04-28T23:13:14.656Z,20.80
2023-04-28T23:15:43.048Z,26.60
2023-04-28T23:18:11.222Z,21.50
2023-04-28T23:20:39.581Z,27.90
2023-04-28T23:23:07.624Z,23.10
2023-04-28T23:25:36.497Z,22.50
2023-04-28T23:28:04.750Z,22.70
2023-04-28T23:30:32.882Z,21.70
2023-04-28T23:33:01.237Z,23.00
2023-04-28T23:35:29.539Z,27.90
2023-04-28T23:37:57.703Z,25.60
2023-04-28T23:40:26.957Z,23.00
2023-04-28T23:42:55.042Z,26.70
2023-04-28T23:45:23.229Z,25.10
2023-04-28T23:47:51.507Z,30.90
2023-04-28T23:50:19.835Z,29.00
2023-04-28T23:53:12.797Z,26.60
2023-04-28T23:55:40.817Z,29.20
2023-04-28T23:58:09.278Z,31.60
